createdAt,value
2022-09-13T00:00:37.228Z,0.00
2022-09-13T00:01:37.269Z,0.00
2022-09-13T00:02:37.204Z,0.00
2022-09-13T00:03:37.204Z,0.00
2022-09-13T00:04:37.162Z,0.00
2022-09-13T00:05:37.211Z,0.00
2022-09-13T00:06:37.138Z,0.00
2022-09-13T00:07:37.145Z,0.00
2022-09-13T00:08:37.164Z,0.00
2022-09-13T00:09:37.131Z,0.00
2022-09-13T00:10:37.149Z,0.00
2022-09-13T00:11:37.112Z,0.00
2022-09-13T00:12:37.074Z,0.00
2022-09-13T00:13:37.071Z,0.00
2022-09-13T00:14:37.090Z,0.00
2022-09-13T00:15:37.040Z,0.00
2022-09-13T00:16:37.065Z,0.00
2022-09-13T00:17:37.024Z,0.00
2022-09-13T00:18:37.044Z,0.00
2022-09-13T00:19:37.058Z,0.00
2022-09-13T00:20:37.003Z,0.00
2022-09-13T00:21:36.974Z,0.00
2022-09-13T00:22:36.960Z,0.00
2022-09-13T00:23:36.951Z,0.00
2022-09-13T00:24:36.980Z,0.00
2022-09-13T00:25:36.948Z,0.00
2022-09-13T00:26:36.941Z,0.00
2022-09-13T00:27:36.905Z,0.00
2022-09-13T00:28:36.978Z,0.00
2022-09-13T00:29:36.924Z,0.00
2022-09-13T00:30:36.884Z,0.00
2022-09-13T00:31:36.930Z,0.00
2022-09-13T00:32:36.848Z,0.00
2022-09-13T00:33:36.838Z,0.00
2022-09-13T00:34:36.849Z,0.00
2022-09-13T00:35:36.925Z,0.00
2022-09-13T00:36:36.827Z,0.00
2022-09-13T00:37:36.823Z,0.00
2022-09-13T00:38:36.897Z,0.00
2022-09-13T00:39:36.772Z,0.00
2022-09-13T00:40:36.762Z,0.00
2022-09-13T00:41:36.762Z,0.00
2022-09-13T00:42:36.757Z,0.00
2022-09-13T00:43:36.777Z,0.00
2022-09-13T00:44:36.744Z,0.00
2022-09-13T00:45:36.744Z,0.00
2022-09-13T00:46:36.693Z,0.00
2022-09-13T00:47:36.689Z,0.00
2022-09-13T00:48:36.697Z,0.00
2022-09-13T00:49:36.705Z,0.00
2022-09-13T00:50:36.659Z,0.00
2022-09-13T00:51:36.658Z,0.00
2022-09-13T00:52:36.629Z,0.00
2022-09-13T00:53:36.689Z,0.00
2022-09-13T00:54:36.636Z,0.00
2022-09-13T00:55:36.643Z,0.00
2022-09-13T00:56:36.595Z,0.00
2022-09-13T00:57:36.575Z,0.00
2022-09-13T00:58:36.597Z,0.00
2022-09-13T00:59:36.568Z,0.00
2022-09-13T01:00:36.564Z,0.00
2022-09-13T01:01:36.527Z,0.00
2022-09-13T01:02:36.521Z,0.00
2022-09-13T01:03:36.605Z,0.00
2022-09-13T01:04:36.510Z,0.00
2022-09-13T01:05:36.506Z,0.00
2022-09-13T01:06:36.512Z,0.00
2022-09-13T01:07:36.509Z,0.00
2022-09-13T01:08:36.459Z,0.00
2022-09-13T01:09:36.447Z,0.00
2022-09-13T01:10:36.437Z,0.00
2022-09-13T01:11:36.447Z,0.00
2022-09-13T01:12:36.447Z,0.00
2022-09-13T01:13:36.534Z,0.00
2022-09-13T01:14:36.384Z,0.00
2022-09-13T01:15:36.392Z,0.00
2022-09-13T01:16:36.438Z,0.00
2022-09-13T01:17:36.374Z,0.00
2022-09-13T01:18:36.336Z,0.00
2022-09-13T01:19:36.327Z,0.00
2022-09-13T01:20:36.438Z,0.00
2022-09-13T01:21:36.325Z,0.00
2022-09-13T01:22:36.317Z,0.00
2022-09-13T01:23:36.320Z,0.00
2022-09-13T01:24:36.269Z,0.00
2022-09-13T01:25:36.261Z,0.00
2022-09-13T01:26:36.277Z,0.00
2022-09-13T01:27:36.258Z,0.00
2022-09-13T01:28:36.272Z,0.00
2022-09-13T01:29:36.214Z,0.00
2022-09-13T01:30:36.202Z,0.00
2022-09-13T01:31:36.413Z,0.00
2022-09-13T01:32:36.214Z,0.00
2022-09-13T01:33:36.228Z,0.00
2022-09-13T01:34:36.185Z,0.00
2022-09-13T01:35:36.147Z,0.00
2022-09-13T01:36:36.156Z,0.00
2022-09-13T01:37:36.128Z,0.00
2022-09-13T01:38:36.151Z,0.00
2022-09-13T01:39:36.130Z,0.00
2022-09-13T01:40:36.120Z,0.00
2022-09-13T01:41:36.080Z,0.00
2022-09-13T01:42:36.068Z,0.00
2022-09-13T01:43:36.061Z,0.00
2022-09-13T01:44:36.091Z,0.00
2022-09-13T01:45:36.112Z,0.00
2022-09-13T01:46:36.024Z,0.00
2022-09-13T01:47:36.012Z,0.00
2022-09-13T01:48:36.008Z,0.00
2022-09-13T01:49:36.004Z,0.00
2022-09-13T01:50:36.089Z,0.00
2022-09-13T01:51:36.006Z,0.00
2022-09-13T01:52:35.956Z,0.00
2022-09-13T01:53:36.005Z,0.00
2022-09-13T01:54:35.935Z,0.00
2022-09-13T01:55:36.039Z,0.00
2022-09-13T01:56:35.955Z,0.00
2022-09-13T01:57:35.943Z,0.00
2022-09-13T01:58:35.888Z,0.00
2022-09-13T01:59:35.928Z,0.00
2022-09-13T02:00:35.868Z,0.00
2022-09-13T02:01:35.951Z,0.00
2022-09-13T02:02:35.922Z,0.00
2022-09-13T02:03:35.884Z,0.00
2022-09-13T02:04:35.821Z,0.00
2022-09-13T02:05:35.816Z,0.00
2022-09-13T02:06:35.811Z,0.00
2022-09-13T02:07:35.832Z,0.00
2022-09-13T02:08:35.818Z,0.00
2022-09-13T02:09:35.766Z,0.00
2022-09-13T02:10:35.755Z,0.00
2022-09-13T02:11:35.769Z,0.00
2022-09-13T02:12:35.772Z,0.00
2022-09-13T02:13:35.798Z,0.00
2022-09-13T02:14:35.755Z,0.00
2022-09-13T02:15:35.700Z,0.00
2022-09-13T02:16:35.821Z,0.00
2022-09-13T02:17:35.680Z,0.00
2022-09-13T02:18:35.680Z,0.00
2022-09-13T02:19:35.691Z,0.00
2022-09-13T02:20:35.680Z,0.00
2022-09-13T02:21:35.634Z,0.00
2022-09-13T02:22:35.629Z,0.00
2022-09-13T02:23:35.637Z,0.00
2022-09-13T02:24:35.618Z,0.00
2022-09-13T02:25:35.632Z,0.00
2022-09-13T02:26:35.575Z,0.00
2022-09-13T02:27:35.584Z,0.00
2022-09-13T02:28:35.569Z,0.00
2022-09-13T02:29:35.583Z,0.00
2022-09-13T02:30:35.579Z,0.00
2022-09-13T02:31:35.585Z,0.00
2022-09-13T02:32:35.509Z,0.00
2022-09-13T02:33:35.566Z,0.00
2022-09-13T02:34:35.723Z,0.00
2022-09-13T02:35:35.490Z,0.00
2022-09-13T02:36:35.496Z,0.00
2022-09-13T02:37:35.489Z,0.00
2022-09-13T02:38:35.451Z,0.00
2022-09-13T02:39:35.433Z,0.00
2022-09-13T02:40:35.446Z,0.00
2022-09-13T02:41:35.421Z,0.00
2022-09-13T02:42:35.435Z,0.00
2022-09-13T02:43:35.489Z,0.00
2022-09-13T02:44:35.443Z,0.00
2022-09-13T02:45:35.414Z,0.00
2022-09-13T02:46:35.366Z,0.00
2022-09-13T02:47:35.367Z,0.00
2022-09-13T02:48:37.379Z,0.00
2022-09-13T02:49:35.367Z,0.00
2022-09-13T02:50:35.312Z,0.00
2022-09-13T02:51:35.298Z,0.00
2022-09-13T02:52:35.306Z,0.00
2022-09-13T02:53:35.298Z,0.00
2022-09-13T02:54:35.280Z,0.00
2022-09-13T02:55:35.308Z,0.00
2022-09-13T02:56:35.261Z,0.00
2022-09-13T02:57:35.236Z,0.00
2022-09-13T02:58:35.228Z,0.00
2022-09-13T02:59:35.324Z,0.00
2022-09-13T03:00:35.237Z,0.00
2022-09-13T03:01:35.312Z,0.00
2022-09-13T03:02:35.255Z,0.00
2022-09-13T03:03:35.174Z,0.00
2022-09-13T03:04:35.165Z,0.00
2022-09-13T03:05:35.179Z,0.00
2022-09-13T03:06:35.180Z,0.00
2022-09-13T03:07:35.121Z,0.00
2022-09-13T03:08:35.107Z,0.00
2022-09-13T03:09:35.120Z,0.00
2022-09-13T03:10:35.120Z,0.00
2022-09-13T03:11:35.094Z,0.00
2022-09-13T03:12:35.062Z,0.00
2022-09-13T03:13:35.060Z,0.00
2022-09-13T03:14:35.077Z,0.00
2022-09-13T03:15:35.051Z,0.00
2022-09-13T03:16:35.094Z,0.00
2022-09-13T03:17:35.049Z,0.00
2022-09-13T03:18:34.997Z,0.00
2022-09-13T03:19:34.999Z,0.00
2022-09-13T03:20:34.998Z,0.00
2022-09-13T03:21:35.020Z,0.00
2022-09-13T03:22:34.983Z,0.00
2022-09-13T03:23:34.937Z,0.00
2022-09-13T03:24:34.932Z,0.00
2022-09-13T03:25:34.915Z,0.00
2022-09-13T03:26:34.939Z,0.00
2022-09-13T03:27:34.931Z,0.00
2022-09-13T03:28:34.906Z,0.00
2022-09-13T03:29:34.870Z,0.00
2022-09-13T03:30:34.884Z,0.00
2022-09-13T03:31:34.953Z,0.00
2022-09-13T03:32:34.860Z,0.00
2022-09-13T03:33:34.852Z,0.00
2022-09-13T03:34:34.868Z,0.00
2022-09-13T03:35:34.803Z,0.00
2022-09-13T03:36:34.810Z,0.00
2022-09-13T03:37:34.793Z,0.00
2022-09-13T03:38:34.793Z,0.00
2022-09-13T03:39:34.803Z,0.00
2022-09-13T03:40:34.778Z,0.00
2022-09-13T03:41:34.736Z,0.00
2022-09-13T03:42:34.728Z,0.00
2022-09-13T03:43:34.732Z,0.00
2022-09-13T03:44:34.731Z,0.00
2022-09-13T03:45:34.766Z,0.00
2022-09-13T03:46:34.683Z,0.00
2022-09-13T03:47:34.698Z,0.00
2022-09-13T03:48:34.701Z,0.00
2022-09-13T03:49:34.657Z,0.00
2022-09-13T03:50:34.662Z,0.00
2022-09-13T03:51:34.626Z,0.00
2022-09-13T03:52:34.618Z,0.00
2022-09-13T03:53:34.626Z,0.00
2022-09-13T03:54:34.627Z,0.00
2022-09-13T03:55:34.592Z,0.00
2022-09-13T03:56:34.611Z,0.00
2022-09-13T03:57:34.609Z,0.00
2022-09-13T03:58:34.547Z,0.00
2022-09-13T03:59:34.534Z,0.00
2022-09-13T04:00:34.571Z,0.00
2022-09-13T04:01:34.621Z,0.00
2022-09-13T04:02:34.620Z,0.00
2022-09-13T04:03:34.603Z,0.00
2022-09-13T04:04:34.480Z,0.00
2022-09-13T04:05:35.214Z,0.00
2022-09-13T04:06:34.467Z,0.00
2022-09-13T04:07:34.477Z,0.00
2022-09-13T04:08:34.477Z,0.00
2022-09-13T04:09:34.464Z,0.00
2022-09-13T04:10:34.436Z,0.00
2022-09-13T04:11:34.412Z,0.00
2022-09-13T04:12:34.410Z,0.00
2022-09-13T04:13:34.412Z,0.00
2022-09-13T04:14:34.374Z,0.00
2022-09-13T04:15:34.403Z,0.00
2022-09-13T04:16:34.387Z,0.00
2022-09-13T04:17:34.350Z,0.00
2022-09-13T04:18:34.345Z,0.00
2022-09-13T04:19:34.364Z,0.00
2022-09-13T04:20:34.315Z,0.00
2022-09-13T04:21:34.308Z,0.00
2022-09-13T04:22:34.282Z,0.00
2022-09-13T04:23:34.281Z,0.00
2022-09-13T04:24:34.294Z,0.00
2022-09-13T04:25:34.243Z,0.00
2022-09-13T04:26:34.234Z,0.00
2022-09-13T04:27:34.256Z,0.00
2022-09-13T04:28:34.735Z,4.00
2022-09-13T04:29:34.218Z,0.00
2022-09-13T04:30:34.200Z,0.00
2022-09-13T04:31:34.244Z,4.00
2022-09-13T04:32:34.210Z,4.00
2022-09-13T04:33:34.155Z,4.00
2022-09-13T04:34:34.160Z,4.00
2022-09-13T04:35:34.192Z,8.00
2022-09-13T04:36:34.152Z,4.00
2022-09-13T04:37:34.109Z,8.00
2022-09-13T04:38:34.109Z,8.00
2022-09-13T04:39:34.098Z,8.00
2022-09-13T04:40:34.090Z,8.00
2022-09-13T04:41:34.098Z,12.00
2022-09-13T04:42:34.102Z,12.00
2022-09-13T04:43:34.046Z,16.00
2022-09-13T04:44:34.048Z,16.00
2022-09-13T04:45:34.106Z,16.00
2022-09-13T04:46:34.023Z,20.00
2022-09-13T04:47:34.040Z,20.00
2022-09-13T04:48:33.988Z,24.00
2022-09-13T04:49:33.980Z,24.00
2022-09-13T04:50:33.997Z,24.00
2022-09-13T04:51:33.987Z,28.00
2022-09-13T04:52:33.961Z,28.00
2022-09-13T04:53:33.966Z,32.00
2022-09-13T04:54:33.951Z,36.00
2022-09-13T04:55:33.958Z,36.00
2022-09-13T04:56:33.907Z,40.00
2022-09-13T04:57:33.896Z,44.00
2022-09-13T04:58:33.898Z,48.00
2022-09-13T04:59:33.863Z,52.00
2022-09-13T05:00:33.860Z,56.00
2022-09-13T05:01:33.896Z,60.00
2022-09-13T05:02:33.898Z,68.00
2022-09-13T05:03:33.838Z,72.00
2022-09-13T05:04:33.839Z,80.00
2022-09-13T05:05:33.798Z,88.00
2022-09-13T05:06:33.792Z,96.00
2022-09-13T05:07:33.826Z,100.00
2022-09-13T05:08:33.780Z,104.00
2022-09-13T05:09:33.792Z,108.00
2022-09-13T05:10:33.756Z,116.00
2022-09-13T05:11:33.728Z,124.00
2022-09-13T05:12:33.734Z,128.00
2022-09-13T05:13:33.751Z,136.00
2022-09-13T05:14:33.724Z,144.00
2022-09-13T05:15:33.714Z,144.00
2022-09-13T05:16:33.678Z,144.00
2022-09-13T05:17:33.701Z,148.00
2022-09-13T05:18:33.653Z,148.00
2022-09-13T05:19:33.657Z,152.00
2022-09-13T05:20:33.642Z,152.00
2022-09-13T05:21:33.626Z,148.00
2022-09-13T05:22:33.608Z,144.00
2022-09-13T05:23:33.638Z,140.00
2022-09-13T05:24:33.585Z,136.00
2022-09-13T05:25:33.596Z,132.00
2022-09-13T05:26:33.590Z,132.00
2022-09-13T05:27:33.590Z,132.00
2022-09-13T05:28:33.540Z,140.00
2022-09-13T05:29:33.527Z,140.00
2022-09-13T05:30:33.522Z,140.00
2022-09-13T05:31:33.687Z,144.00
2022-09-13T05:32:33.525Z,140.00
2022-09-13T05:33:33.531Z,140.00
2022-09-13T05:34:33.536Z,140.00
2022-09-13T05:35:33.485Z,140.00
2022-09-13T05:36:33.466Z,140.00
2022-09-13T05:37:33.464Z,144.00
2022-09-13T05:38:33.474Z,144.00
2022-09-13T05:39:54.095Z,148.00
2022-09-13T05:40:34.496Z,148.00
2022-09-13T05:41:33.395Z,148.00
2022-09-13T05:42:33.401Z,144.00
2022-09-13T05:43:33.383Z,144.00
2022-09-13T05:44:33.409Z,148.00
2022-09-13T05:45:33.406Z,152.00
2022-09-13T05:46:33.387Z,156.00
2022-09-13T05:47:33.366Z,156.00
2022-09-13T05:48:33.337Z,164.00
2022-09-13T05:49:33.348Z,168.00
2022-09-13T05:50:57.447Z,168.00
2022-09-13T05:51:34.283Z,172.00
2022-09-13T05:52:33.278Z,180.00
2022-09-13T05:53:33.305Z,184.00
2022-09-13T05:54:33.265Z,184.00
2022-09-13T05:55:33.356Z,180.00
2022-09-13T05:56:33.280Z,180.00
2022-09-13T05:57:33.223Z,176.00
2022-09-13T05:58:33.236Z,176.00
2022-09-13T05:59:33.214Z,180.00
2022-09-13T06:00:33.236Z,192.00
2022-09-13T06:01:33.249Z,212.00
2022-09-13T06:02:33.290Z,208.00
2022-09-13T06:03:33.159Z,208.00
2022-09-13T06:04:33.143Z,216.00
2022-09-13T06:05:33.139Z,224.00
2022-09-13T06:06:33.147Z,228.00
2022-09-13T06:07:33.137Z,232.00
2022-09-13T06:08:33.167Z,236.00
2022-09-13T06:09:33.080Z,240.00
2022-09-13T06:10:33.080Z,244.00
2022-09-13T06:11:33.161Z,248.00
2022-09-13T06:12:33.082Z,252.00
2022-09-13T06:13:33.038Z,256.00
2022-09-13T06:14:33.063Z,260.00
2022-09-13T06:15:33.014Z,260.00
2022-09-13T06:16:33.159Z,264.00
2022-09-13T06:17:32.995Z,260.00
2022-09-13T06:18:33.001Z,260.00
2022-09-13T06:19:32.970Z,260.00
2022-09-13T06:20:32.974Z,264.00
2022-09-13T06:21:32.984Z,264.00
2022-09-13T06:22:32.962Z,268.00
2022-09-13T06:23:32.958Z,272.00
2022-09-13T06:24:32.928Z,276.00
2022-09-13T06:25:32.906Z,284.00
2022-09-13T06:26:32.895Z,296.00
2022-09-13T06:27:32.938Z,304.00
2022-09-13T06:28:36.777Z,312.00
2022-09-13T06:29:32.872Z,316.00
2022-09-13T06:30:32.879Z,320.00
2022-09-13T06:31:32.879Z,324.00
2022-09-13T06:32:32.828Z,324.00
2022-09-13T06:33:32.821Z,328.00
2022-09-13T06:34:32.844Z,324.00
2022-09-13T06:35:32.814Z,332.00
2022-09-13T06:36:32.782Z,340.00
2022-09-13T06:37:32.777Z,348.00
2022-09-13T06:38:32.794Z,332.00
2022-09-13T06:39:32.768Z,324.00
2022-09-13T06:40:32.852Z,340.00
2022-09-13T06:41:32.735Z,360.00
2022-09-13T06:42:32.718Z,368.00
2022-09-13T06:43:33.328Z,372.00
2022-09-13T06:44:32.734Z,384.00
2022-09-13T06:45:32.712Z,388.00
2022-09-13T06:46:32.756Z,404.00
2022-09-13T06:47:32.682Z,412.00
2022-09-13T06:48:32.651Z,412.00
2022-09-13T06:49:32.638Z,424.00
2022-09-13T06:50:32.639Z,428.00
2022-09-13T06:51:32.678Z,428.00
2022-09-13T06:52:32.647Z,432.00
2022-09-13T06:53:32.596Z,432.00
2022-09-13T06:54:32.591Z,448.00
2022-09-13T06:55:32.573Z,448.00
2022-09-13T06:56:32.818Z,456.00
2022-09-13T06:57:32.586Z,448.00
2022-09-13T06:58:32.591Z,456.00
2022-09-13T06:59:32.553Z,468.00
2022-09-13T07:00:32.581Z,504.00
2022-09-13T07:01:32.675Z,516.00
2022-09-13T07:02:32.509Z,532.00
2022-09-13T07:03:32.492Z,580.00
2022-09-13T07:04:32.497Z,640.00
2022-09-13T07:05:32.495Z,728.00
2022-09-13T07:06:32.469Z,832.00
2022-09-13T07:07:32.482Z,992.00
2022-09-13T07:08:32.457Z,1188.00
2022-09-13T07:09:32.427Z,1520.00
2022-09-13T07:10:32.424Z,2800.00
2022-09-13T07:11:32.400Z,4704.00
2022-09-13T07:12:32.384Z,5728.00
2022-09-13T07:13:32.412Z,6028.00
2022-09-13T07:14:32.360Z,6120.00
2022-09-13T07:15:32.463Z,6180.00
2022-09-13T07:16:32.366Z,6124.00
2022-09-13T07:17:32.338Z,5916.00
2022-09-13T07:18:32.342Z,5880.00
2022-09-13T07:19:32.331Z,5828.00
2022-09-13T07:20:32.337Z,5684.00
2022-09-13T07:21:32.305Z,5652.00
2022-09-13T07:22:32.314Z,5724.00
2022-09-13T07:23:32.263Z,5708.00
2022-09-13T07:24:32.266Z,5624.00
2022-09-13T07:25:32.268Z,5176.00
2022-09-13T07:26:32.274Z,5500.00
2022-09-13T07:27:32.248Z,5280.00
2022-09-13T07:28:35.207Z,5012.00
2022-09-13T07:29:32.194Z,4712.00
2022-09-13T07:30:32.207Z,5188.00
2022-09-13T07:31:32.421Z,5416.00
2022-09-13T07:32:32.213Z,5316.00
2022-09-13T07:33:32.171Z,5356.00
2022-09-13T07:34:32.135Z,5408.00
2022-09-13T07:35:32.132Z,5384.00
2022-09-13T07:36:32.146Z,5440.00
2022-09-13T07:37:32.110Z,5372.00
2022-09-13T07:38:40.343Z,5516.00
2022-09-13T07:39:32.081Z,5408.00
2022-09-13T07:40:32.067Z,5344.00
2022-09-13T07:41:32.072Z,5100.00
2022-09-13T07:42:32.079Z,4876.00
2022-09-13T07:43:32.044Z,4716.00
2022-09-13T07:44:32.040Z,4612.00
2022-09-13T07:45:32.021Z,4544.00
2022-09-13T07:46:32.068Z,3916.00
2022-09-13T07:47:32.043Z,3672.00
2022-09-13T07:48:33.690Z,3748.00
2022-09-13T07:49:31.983Z,2664.00
2022-09-13T07:50:31.978Z,1388.00
2022-09-13T07:51:31.947Z,1008.00
2022-09-13T07:52:31.940Z,988.00
2022-09-13T07:53:31.956Z,992.00
2022-09-13T07:54:31.941Z,988.00
2022-09-13T07:55:31.931Z,984.00
2022-09-13T07:56:31.889Z,984.00
2022-09-13T07:57:31.878Z,984.00
2022-09-13T07:58:31.886Z,984.00
2022-09-13T07:59:31.886Z,980.00
2022-09-13T08:00:31.855Z,968.00
2022-09-13T08:01:32.027Z,956.00
2022-09-13T08:02:31.899Z,948.00
2022-09-13T08:03:31.914Z,936.00
2022-09-13T08:04:35.786Z,920.00
2022-09-13T08:05:31.827Z,904.00
2022-09-13T08:06:31.791Z,876.00
2022-09-13T08:07:31.804Z,844.00
2022-09-13T08:08:31.755Z,824.00
2022-09-13T08:09:31.763Z,812.00
2022-09-13T08:10:31.745Z,804.00
2022-09-13T08:11:31.726Z,784.00
2022-09-13T08:12:31.730Z,736.00
2022-09-13T08:13:31.702Z,680.00
2022-09-13T08:14:31.735Z,632.00
2022-09-13T08:15:31.747Z,600.00
2022-09-13T08:16:31.689Z,580.00
2022-09-13T08:17:31.663Z,552.00
2022-09-13T08:18:31.663Z,528.00
2022-09-13T08:19:31.687Z,504.00
2022-09-13T08:20:31.622Z,484.00
2022-09-13T08:21:31.637Z,460.00
2022-09-13T08:22:31.644Z,432.00
2022-09-13T08:23:31.640Z,400.00
2022-09-13T08:24:31.623Z,384.00
2022-09-13T08:25:31.620Z,368.00
2022-09-13T08:26:31.586Z,364.00
2022-09-13T08:27:31.880Z,384.00
2022-09-13T08:28:31.535Z,388.00
2022-09-13T08:29:31.596Z,388.00
2022-09-13T08:30:31.577Z,392.00
2022-09-13T08:31:31.501Z,396.00
2022-09-13T08:32:31.500Z,392.00
2022-09-13T08:33:31.508Z,392.00
2022-09-13T08:34:31.476Z,376.00
2022-09-13T08:35:31.649Z,360.00
2022-09-13T08:36:31.480Z,352.00
2022-09-13T08:37:31.444Z,372.00
2022-09-13T08:38:31.450Z,376.00
2022-09-13T08:39:33.438Z,380.00
2022-09-13T08:40:31.413Z,380.00
2022-09-13T08:41:31.402Z,376.00
2022-09-13T08:42:31.377Z,340.00
2022-09-13T08:43:31.373Z,336.00
2022-09-13T08:44:31.386Z,332.00
2022-09-13T08:45:31.390Z,336.00
2022-09-13T08:46:31.410Z,340.00
2022-09-13T08:47:31.355Z,336.00
2022-09-13T08:48:31.315Z,332.00
2022-09-13T08:49:31.315Z,332.00
2022-09-13T08:50:31.305Z,332.00
2022-09-13T08:51:31.299Z,328.00
2022-09-13T08:52:31.287Z,316.00
2022-09-13T08:53:31.285Z,316.00
2022-09-13T08:54:31.243Z,308.00
2022-09-13T08:55:31.261Z,316.00
2022-09-13T08:56:31.249Z,312.00
2022-09-13T08:57:31.219Z,316.00
2022-09-13T08:58:31.213Z,312.00
2022-09-13T08:59:31.192Z,316.00
2022-09-13T09:00:31.185Z,316.00
2022-09-13T09:01:31.203Z,316.00
2022-09-13T09:02:31.255Z,320.00
2022-09-13T09:03:31.157Z,316.00
2022-09-13T09:04:31.130Z,324.00
2022-09-13T09:05:31.174Z,320.00
2022-09-13T09:06:31.124Z,316.00
2022-09-13T09:07:31.159Z,320.00
2022-09-13T09:08:31.090Z,320.00
2022-09-13T09:09:31.095Z,328.00
2022-09-13T09:10:31.098Z,320.00
2022-09-13T09:11:31.063Z,320.00
2022-09-13T09:12:31.065Z,320.00
2022-09-13T09:13:31.056Z,320.00
2022-09-13T09:14:31.060Z,328.00
2022-09-13T09:15:31.068Z,348.00
2022-09-13T09:16:31.000Z,356.00
2022-09-13T09:17:30.993Z,352.00
2022-09-13T09:18:30.996Z,340.00
2022-09-13T09:19:31.018Z,344.00
2022-09-13T09:20:30.969Z,348.00
2022-09-13T09:21:30.966Z,356.00
2022-09-13T09:22:30.971Z,364.00
2022-09-13T09:23:31.032Z,368.00
2022-09-13T09:24:30.927Z,364.00
2022-09-13T09:25:30.945Z,356.00
2022-09-13T09:26:30.907Z,348.00
2022-09-13T09:27:30.922Z,340.00
2022-09-13T09:28:30.866Z,336.00
2022-09-13T09:29:30.871Z,332.00
2022-09-13T09:30:30.884Z,328.00
2022-09-13T09:31:30.870Z,324.00
2022-09-13T09:32:30.836Z,320.00
2022-09-13T09:33:30.811Z,316.00
2022-09-13T09:34:30.806Z,308.00
2022-09-13T09:35:30.813Z,304.00
2022-09-13T09:36:30.812Z,300.00
2022-09-13T09:37:30.787Z,296.00
2022-09-13T09:38:30.775Z,296.00
2022-09-13T09:39:30.809Z,292.00
2022-09-13T09:40:31.798Z,292.00
2022-09-13T09:41:30.737Z,292.00
2022-09-13T09:42:30.714Z,292.00
2022-09-13T09:43:30.737Z,292.00
2022-09-13T09:44:30.722Z,292.00
2022-09-13T09:45:30.677Z,292.00
2022-09-13T09:46:30.779Z,288.00
2022-09-13T09:47:30.674Z,288.00
2022-09-13T09:48:30.645Z,292.00
2022-09-13T09:49:30.641Z,292.00
2022-09-13T09:50:30.660Z,292.00
2022-09-13T09:51:30.616Z,292.00
2022-09-13T09:52:30.618Z,296.00
2022-09-13T09:53:34.852Z,296.00
2022-09-13T09:54:31.609Z,296.00
2022-09-13T09:55:30.706Z,296.00
2022-09-13T09:56:30.554Z,292.00
2022-09-13T09:57:30.555Z,296.00
2022-09-13T09:58:30.557Z,296.00
2022-09-13T09:59:30.564Z,296.00
2022-09-13T10:00:30.565Z,296.00
2022-09-13T10:01:30.556Z,296.00
2022-09-13T10:02:30.550Z,300.00
2022-09-13T10:03:30.493Z,296.00
2022-09-13T10:04:30.477Z,296.00
2022-09-13T10:05:30.502Z,300.00
2022-09-13T10:06:30.462Z,296.00
2022-09-13T10:07:30.466Z,296.00
2022-09-13T10:08:30.436Z,296.00
2022-09-13T10:09:30.419Z,296.00
2022-09-13T10:10:30.476Z,300.00
2022-09-13T10:11:30.464Z,300.00
2022-09-13T10:12:30.401Z,300.00
2022-09-13T10:13:31.900Z,304.00
2022-09-13T10:14:30.370Z,308.00
2022-09-13T10:15:30.372Z,312.00
2022-09-13T10:16:30.447Z,316.00
2022-09-13T10:17:30.336Z,328.00
2022-09-13T10:18:44.050Z,372.00
2022-09-13T10:19:31.309Z,460.00
2022-09-13T10:20:30.307Z,500.00
2022-09-13T10:21:30.311Z,476.00
2022-09-13T10:22:30.275Z,500.00
2022-09-13T10:23:30.272Z,544.00
2022-09-13T10:24:30.270Z,608.00
2022-09-13T10:25:30.249Z,636.00
2022-09-13T10:26:30.243Z,568.00
2022-09-13T10:27:30.349Z,592.00
2022-09-13T10:28:30.208Z,640.00
2022-09-13T10:29:30.233Z,752.00
2022-09-13T10:30:30.248Z,832.00
2022-09-13T10:31:30.178Z,936.00
2022-09-13T10:32:30.180Z,1060.00
2022-09-13T10:33:30.191Z,1280.00
2022-09-13T10:34:30.147Z,1428.00
2022-09-13T10:35:30.173Z,1548.00
2022-09-13T10:36:51.083Z,1580.00
2022-09-13T10:37:31.136Z,1608.00
2022-09-13T10:38:30.129Z,1620.00
2022-09-13T10:39:30.126Z,1596.00
2022-09-13T10:40:30.086Z,1620.00
2022-09-13T10:41:30.091Z,1664.00
2022-09-13T10:42:38.076Z,1668.00
2022-09-13T10:43:30.044Z,1596.00
2022-09-13T10:44:30.048Z,1520.00
2022-09-13T10:45:30.015Z,1536.00
2022-09-13T10:46:29.997Z,1592.00
2022-09-13T10:47:30.012Z,1616.00
2022-09-13T10:48:29.985Z,1644.00
2022-09-13T10:49:29.996Z,1680.00
2022-09-13T10:50:29.985Z,1688.00
2022-09-13T10:51:29.966Z,1656.00
2022-09-13T10:52:29.938Z,1476.00
2022-09-13T10:53:29.922Z,1248.00
2022-09-13T10:54:29.926Z,1252.00
2022-09-13T10:55:29.924Z,1296.00
2022-09-13T10:56:29.890Z,1484.00
2022-09-13T10:57:29.886Z,1692.00
2022-09-13T10:58:29.908Z,1740.00
2022-09-13T10:59:29.857Z,1796.00
2022-09-13T11:00:29.888Z,1844.00
2022-09-13T11:01:29.900Z,1832.00
2022-09-13T11:02:29.828Z,1816.00
2022-09-13T11:03:29.905Z,1784.00
2022-09-13T11:04:29.860Z,1852.00
2022-09-13T11:05:29.796Z,1844.00
2022-09-13T11:06:29.803Z,1796.00
2022-09-13T11:07:29.765Z,1864.00
2022-09-13T11:08:29.768Z,1884.00
2022-09-13T11:09:29.745Z,1776.00
2022-09-13T11:10:29.784Z,1752.00
2022-09-13T11:11:29.748Z,1836.00
2022-09-13T11:12:29.737Z,1804.00
2022-09-13T11:13:29.714Z,1704.00
2022-09-13T11:14:29.788Z,1664.00
2022-09-13T11:15:29.686Z,1624.00
2022-09-13T11:16:29.721Z,1816.00
2022-09-13T11:17:29.674Z,1896.00
2022-09-13T11:18:29.678Z,1924.00
2022-09-13T11:19:29.649Z,1912.00
2022-09-13T11:20:29.644Z,1900.00
2022-09-13T11:21:29.615Z,1892.00
2022-09-13T11:22:29.611Z,1856.00
2022-09-13T11:23:29.606Z,1820.00
2022-09-13T11:24:29.613Z,1772.00
2022-09-13T11:25:29.575Z,1692.00
2022-09-13T11:26:29.580Z,1656.00
2022-09-13T11:27:29.607Z,1620.00
2022-09-13T11:28:29.548Z,1684.00
2022-09-13T11:29:29.546Z,1664.00
2022-09-13T11:30:30.237Z,1608.00
2022-09-13T11:31:29.550Z,1712.00
2022-09-13T11:32:29.497Z,1796.00
2022-09-13T11:33:29.480Z,1868.00
2022-09-13T11:34:29.519Z,1776.00
2022-09-13T11:35:29.494Z,1764.00
2022-09-13T11:36:29.449Z,1652.00
2022-09-13T11:37:29.457Z,1624.00
2022-09-13T11:38:29.442Z,1624.00
2022-09-13T11:39:29.420Z,1696.00
2022-09-13T11:40:29.415Z,1636.00
2022-09-13T11:41:29.449Z,1640.00
2022-09-13T11:42:29.389Z,1712.00
2022-09-13T11:43:29.393Z,1520.00
2022-09-13T11:44:29.386Z,1440.00
2022-09-13T11:45:29.436Z,1460.00
2022-09-13T11:46:29.356Z,1472.00
2022-09-13T11:47:29.324Z,1516.00
2022-09-13T11:48:29.328Z,1456.00
2022-09-13T11:49:29.384Z,1452.00
2022-09-13T11:50:29.291Z,1532.00
2022-09-13T11:51:29.288Z,1724.00
2022-09-13T11:52:29.292Z,1840.00
2022-09-13T11:53:30.232Z,1808.00
2022-09-13T11:54:29.248Z,1820.00
2022-09-13T11:55:29.255Z,1700.00
2022-09-13T11:56:29.285Z,1664.00
2022-09-13T11:57:29.243Z,1648.00
2022-09-13T11:58:29.238Z,1572.00
2022-09-13T11:59:29.213Z,1592.00
2022-09-13T12:00:29.187Z,1520.00
2022-09-13T12:01:29.185Z,1396.00
2022-09-13T12:02:29.349Z,1388.00
2022-09-13T12:03:29.270Z,1484.00
2022-09-13T12:04:33.539Z,1680.00
2022-09-13T12:05:29.129Z,1760.00
2022-09-13T12:06:29.128Z,1748.00
2022-09-13T12:07:29.105Z,1628.00
2022-09-13T12:08:29.111Z,1476.00
2022-09-13T12:09:29.109Z,1292.00
2022-09-13T12:10:29.119Z,1256.00
2022-09-13T12:11:29.077Z,1228.00
2022-09-13T12:12:29.060Z,1256.00
2022-09-13T12:13:29.045Z,1292.00
2022-09-13T12:14:29.051Z,1300.00
2022-09-13T12:15:29.017Z,1332.00
2022-09-13T12:16:31.030Z,1428.00
2022-09-13T12:17:29.994Z,1428.00
2022-09-13T12:18:29.020Z,1432.00
2022-09-13T12:19:29.007Z,1464.00
2022-09-13T12:20:28.982Z,1592.00
2022-09-13T12:21:28.984Z,1680.00
2022-09-13T12:22:31.045Z,1776.00
2022-09-13T12:23:28.969Z,1844.00
2022-09-13T12:24:28.946Z,1768.00
2022-09-13T12:25:28.921Z,1744.00
2022-09-13T12:26:28.915Z,1712.00
2022-09-13T12:27:28.885Z,1748.00
2022-09-13T12:28:28.874Z,1656.00
2022-09-13T12:29:28.952Z,1588.00
2022-09-13T12:30:28.852Z,1508.00
2022-09-13T12:31:28.882Z,1520.00
2022-09-13T12:32:28.828Z,1444.00
2022-09-13T12:33:28.819Z,1416.00
2022-09-13T12:34:28.976Z,1252.00
2022-09-13T12:35:28.816Z,1128.00
2022-09-13T12:36:28.792Z,1132.00
2022-09-13T12:37:28.824Z,1112.00
2022-09-13T12:38:31.514Z,1224.00
2022-09-13T12:39:28.775Z,1096.00
2022-09-13T12:40:28.766Z,1128.00
2022-09-13T12:41:28.755Z,1124.00